Time;durP1;ratioP1;P1;durP2;ratioP2;P2;SDS_P1;SDS_P2;PMS_P1;PMS_P2;Temp;Humidity;BMP_temperature;BMP_pressure;BME280_temperature;BME280_humidity;BME280_pressure;Samples;Min_cycle;Max_cycle;Signal;HPM_P1;HPM_P2
2023/06/26 00:01:09;;;;;;;6.20;3.50;;;24.10;74.10;;;24.61;nan;100461.28;4989424;28;20611;-68
2023/06/26 00:03:36;;;;;;;5.47;3.87;;;24.00;74.50;;;24.59;nan;100456.16;4971560;28;20615;-67
2023/06/26 00:06:03;;;;;;;5.07;3.50;;;24.00;74.60;;;24.54;nan;100450.59;4976767;28;20662;-67
2023/06/26 00:08:30;;;;;;;5.27;4.10;;;23.90;74.70;;;24.53;nan;100450.81;4992718;28;20669;-66
2023/06/26 00:10:57;;;;;;;3.90;3.50;;;23.90;74.60;;;24.52;nan;100454.50;4992509;28;20618;-67
2023/06/26 00:13:24;;;;;;;5.70;3.80;;;23.90;74.50;;;24.50;nan;100452.03;4988451;28;20635;-66
2023/06/26 00:15:51;;;;;;;5.07;3.43;;;23.90;74.60;;;24.56;nan;100456.56;4991356;28;20646;-67
2023/06/26 00:18:18;;;;;;;6.23;4.40;;;23.90;74.00;;;24.59;nan;100450.81;4990946;28;20634;-67
2023/06/26 00:20:45;;;;;;;5.43;4.10;;;24.00;73.60;;;24.54;nan;100453.28;4993269;28;20626;-67
2023/06/26 00:23:16;;;;;;;4.80;3.20;;;23.90;73.10;;;24.50;nan;100452.03;4989893;28;20653;-67
2023/06/26 00:25:44;;;;;;;5.10;3.50;;;23.90;73.30;;;24.51;nan;100451.00;4975255;28;20658;-67
2023/06/26 00:28:11;;;;;;;3.77;3.00;;;23.90;73.40;;;24.47;nan;100449.78;4990825;28;20646;-67
2023/06/26 00:30:38;;;;;;;5.30;3.90;;;23.90;74.20;;;24.43;nan;100456.53;4992203;28;20617;-68
2023/06/26 00:33:05;;;;;;;4.50;3.37;;;23.80;74.10;;;24.41;nan;100463.09;4975524;28;20616;-68
2023/06/26 00:35:32;;;;;;;4.67;3.43;;;23.80;74.50;;;24.39;nan;100459.81;4990274;28;20658;-67
2023/06/26 00:37:59;;;;;;;5.23;3.27;;;23.80;74.80;;;24.31;nan;100447.50;4990536;28;20661;-67
2023/06/26 00:40:27;;;;;;;3.60;3.30;;;23.70;75.40;;;24.24;nan;100452.00;4992336;28;21016;-67
2023/06/26 00:42:54;;;;;;;4.23;3.60;;;23.60;75.60;;;24.18;nan;100450.16;4990062;28;20625;-67
2023/06/26 00:45:21;;;;;;;3.57;3.27;;;23.60;76.10;;;24.10;nan;100455.69;4998607;28;20711;-67
2023/06/26 00:47:59;;;;;;;3.27;2.87;;;23.50;76.70;;;24.01;nan;100451.53;5009299;28;20639;-67
2023/06/26 00:50:27;;;;;;;5.10;2.80;;;23.50;77.50;;;23.90;nan;100444.94;5008363;28;21001;-67
2023/06/26 00:53:00;;;;;;;4.50;3.40;;;23.30;77.90;;;23.77;nan;100441.41;4992186;28;20634;-67
2023/06/26 00:55:27;;;;;;;4.40;3.93;;;23.20;78.40;;;23.69;nan;100444.25;4972382;28;20666;-65
2023/06/26 00:57:55;;;;;;;6.13;3.70;;;23.10;78.70;;;23.68;nan;100439.94;4989661;28;20649;-66
2023/06/26 01:00:23;;;;;;;4.63;3.60;;;23.10;79.10;;;23.65;nan;100435.84;4990679;28;20629;-67
2023/06/26 01:02:50;;;;;;;4.23;3.47;;;23.10;79.40;;;23.71;nan;100434.22;5003985;28;20621;-67
2023/06/26 01:05:20;;;;;;;6.07;4.67;;;23.10;79.70;;;23.74;nan;100426.66;5009474;28;20669;-67
2023/06/26 01:07:50;;;;;;;5.00;4.50;;;23.10;79.80;;;23.81;nan;100431.97;4987386;28;20630;-67
2023/06/26 01:10:19;;;;;;;5.00;3.67;;;23.20;80.00;;;23.82;nan;100431.81;4988324;28;20666;-67
2023/06/26 01:12:46;;;;;;;5.07;4.00;;;23.20;80.30;;;23.82;nan;100420.31;4990567;28;20630;-67
2023/06/26 01:15:13;;;;;;;3.97;3.57;;;23.20;80.60;;;23.81;nan;100421.31;4991425;28;20669;-67
2023/06/26 01:17:44;;;;;;;5.10;3.90;;;23.20;80.90;;;23.83;nan;100429.94;4971349;28;20611;-67
2023/06/26 01:20:13;;;;;;;6.33;3.50;;;23.20;80.90;;;23.84;nan;100423.59;4984413;28;21025;-66
2023/06/26 01:23:15;;;;;;;4.50;3.50;;;23.20;81.10;;;23.83;nan;100427.25;4973050;28;20630;-67
2023/06/26 01:26:07;;;;;;;4.60;3.60;;;23.20;81.30;;;23.86;nan;100413.56;4986747;28;20666;-67
2023/06/26 01:28:44;;;;;;;5.43;4.00;;;23.20;81.40;;;23.86;nan;100418.88;5000961;28;20663;-67
2023/06/26 01:31:12;;;;;;;6.53;3.90;;;23.20;81.60;;;23.83;nan;100420.09;4973567;28;20634;-67
2023/06/26 01:33:41;;;;;;;3.63;3.30;;;23.20;81.70;;;23.80;nan;100412.53;4977945;28;20645;-67
2023/06/26 01:36:08;;;;;;;4.27;3.70;;;23.20;82.00;;;23.78;nan;100417.25;4981159;28;20650;-67
2023/06/26 01:38:35;;;;;;;4.80;3.23;;;23.20;82.10;;;23.79;nan;100415.38;5003918;28;20629;-67
2023/06/26 01:41:05;;;;;;;4.83;3.97;;;23.20;82.30;;;23.77;nan;100414.75;4996109;28;20636;-67
2023/06/26 01:43:43;;;;;;;5.30;4.03;;;23.20;82.40;;;23.71;nan;100407.56;4990427;28;20650;-66
2023/06/26 01:46:25;;;;;;;3.53;3.07;;;23.10;82.60;;;23.63;nan;100400.59;4991243;28;20668;-67
2023/06/26 01:49:37;;;;;;;4.37;3.20;;;23.00;83.00;;;23.55;nan;100413.25;5001135;28;20662;-68
2023/06/26 01:52:49;;;;;;;4.27;3.40;;;23.00;83.40;;;23.41;nan;100411.53;4994246;28;20632;-67
2023/06/26 01:55:35;;;;;;;4.00;3.10;;;22.80;84.20;;;23.30;nan;100412.09;4984091;28;21051;-66
2023/06/26 01:58:03;;;;;;;5.70;3.37;;;22.70;85.20;;;23.17;nan;100409.38;4989942;28;20614;-67
2023/06/26 02:00:31;;;;;;;4.73;3.60;;;22.60;86.10;;;23.06;nan;100410.75;4968146;28;20641;-67
2023/06/26 02:02:58;;;;;;;5.57;3.60;;;22.50;87.20;;;22.96;nan;100408.41;4991580;28;20606;-67
2023/06/26 02:05:25;;;;;;;6.93;3.77;;;22.40;88.40;;;22.92;nan;100412.50;4993549;28;20650;-67
2023/06/26 02:07:52;;;;;;;4.27;3.50;;;22.40;89.20;;;22.85;nan;100408.16;4992686;28;20638;-66
2023/06/26 02:10:19;;;;;;;3.60;3.30;;;22.30;90.00;;;22.72;nan;100410.72;4994241;28;20646;-67
2023/06/26 02:12:46;;;;;;;5.27;3.73;;;22.10;90.60;;;22.67;nan;100403.31;4984970;28;20642;-67
2023/06/26 02:15:13;;;;;;;3.93;3.50;;;22.10;91.00;;;22.61;nan;100414.75;4972937;28;20681;-68
2023/06/26 02:17:40;;;;;;;3.90;3.40;;;22.00;91.10;;;22.57;nan;100418.78;4992972;28;20626;-65
2023/06/26 02:20:10;;;;;;;3.70;3.17;;;22.00;91.40;;;22.54;nan;100415.66;4989446;28;20703;-67
2023/06/26 02:22:37;;;;;;;4.00;3.07;;;22.00;91.40;;;22.46;nan;100415.81;4987507;28;20627;-66
2023/06/26 02:25:05;;;;;;;3.17;2.87;;;21.90;91.60;;;22.39;nan;100416.56;4991277;28;20669;-66
2023/06/26 02:27:32;;;;;;;5.07;3.30;;;21.80;91.60;;;22.28;nan;100418.91;4993498;28;20641;-66
2023/06/26 02:29:59;;;;;;;4.10;3.10;;;21.70;92.00;;;22.21;nan;100418.03;4993058;28;20729;-66
2023/06/26 02:32:26;;;;;;;3.97;3.20;;;21.70;92.10;;;22.13;nan;100420.81;4994001;28;20594;-68
2023/06/26 02:34:53;;;;;;;4.93;3.10;;;21.60;92.20;;;22.06;nan;100417.28;5002720;28;20644;-68
2023/06/26 02:37:20;;;;;;;5.30;3.27;;;21.50;92.00;;;22.04;nan;100421.97;5009150;28;20621;-67
2023/06/26 02:39:47;;;;;;;3.33;3.10;;;21.50;92.30;;;21.96;nan;100420.22;4996876;28;20650;-67
2023/06/26 02:42:14;;;;;;;5.73;4.10;;;21.40;91.80;;;21.90;nan;100414.84;4994078;28;20622;-67
2023/06/26 02:44:41;;;;;;;5.83;4.07;;;21.40;91.90;;;21.90;nan;100409.53;4992785;28;20638;-67
2023/06/26 02:47:09;;;;;;;5.27;3.67;;;21.30;91.90;;;21.93;nan;100411.81;4993605;28;20630;-66
2023/06/26 02:49:36;;;;;;;5.40;4.27;;;21.40;91.90;;;21.96;nan;100409.59;4994554;28;20672;-66
2023/06/26 02:52:03;;;;;;;4.87;4.10;;;21.40;91.90;;;22.01;nan;100412.53;4994630;28;20623;-66
2023/06/26 02:54:30;;;;;;;4.70;4.07;;;21.40;91.90;;;22.09;nan;100416.88;5012684;28;20632;-66
2023/06/26 02:56:57;;;;;;;4.30;3.70;;;21.50;92.30;;;22.15;nan;100419.59;5003771;28;20723;-67
2023/06/26 02:59:24;;;;;;;3.57;3.27;;;21.60;91.90;;;22.19;nan;100410.25;5009904;28;20644;-65
2023/06/26 03:01:51;;;;;;;3.50;3.10;;;21.60;91.70;;;22.18;nan;100419.25;5005647;28;20637;-66
2023/06/26 03:04:21;;;;;;;3.47;2.60;;;21.60;91.60;;;22.13;nan;100424.28;5012306;28;20644;-66
2023/06/26 03:06:48;;;;;;;5.30;3.40;;;21.60;92.00;;;22.06;nan;100419.94;5004867;28;20669;-65
2023/06/26 03:09:16;;;;;;;5.20;3.70;;;21.50;92.40;;;21.92;nan;100418.97;4992701;28;20649;-68
2023/06/26 03:11:43;;;;;;;4.47;3.40;;;21.40;92.90;;;21.84;nan;100423.56;4970499;28;20661;-67
2023/06/26 03:14:10;;;;;;;6.70;3.47;;;21.30;93.60;;;21.75;nan;100420.19;4991816;28;20633;-67
2023/06/26 03:16:37;;;;;;;3.93;2.73;;;21.20;94.50;;;21.69;nan;100420.94;4999646;28;20681;-67
2023/06/26 03:19:04;;;;;;;5.00;3.20;;;21.10;95.00;;;21.58;nan;100419.59;4996784;28;20653;-68
2023/06/26 03:21:32;;;;;;;3.30;3.00;;;21.00;95.70;;;21.56;nan;100418.13;4992211;28;20653;-69
2023/06/26 03:23:59;;;;;;;3.63;2.80;;;21.00;96.10;;;21.57;nan;100420.56;4973970;28;20655;-67
2023/06/26 03:26:28;;;;;;;3.50;2.80;;;21.00;96.40;;;21.58;nan;100418.75;4990920;28;20669;-69
2023/06/26 03:28:55;;;;;;;5.10;3.70;;;21.00;96.70;;;21.63;nan;100413.72;4993279;28;21877;-67
2023/06/26 03:31:22;;;;;;;3.70;3.33;;;21.00;96.70;;;21.64;nan;100416.19;4993886;28;21034;-67
2023/06/26 03:33:49;;;;;;;4.53;3.70;;;21.10;96.90;;;21.67;nan;100420.28;4995365;28;20622;-67
2023/06/26 03:36:16;;;;;;;4.47;2.97;;;21.10;97.00;;;21.71;nan;100418.91;5010632;28;20688;-68
2023/06/26 03:38:43;;;;;;;5.17;3.50;;;21.10;97.10;;;21.71;nan;100420.72;5000217;28;20710;-68
2023/06/26 03:41:10;;;;;;;5.33;3.80;;;21.10;97.30;;;21.75;nan;100419.34;4993509;28;20634;-66
2023/06/26 03:43:37;;;;;;;4.63;3.60;;;21.20;97.30;;;21.77;nan;100415.50;4997530;28;20637;-67
2023/06/26 03:46:04;;;;;;;4.67;3.00;;;21.20;97.70;;;21.77;nan;100423.47;5012734;28;21040;-65
2023/06/26 03:48:31;;;;;;;5.17;3.30;;;21.20;97.60;;;21.79;nan;100417.97;5002428;28;20649;-67
2023/06/26 03:50:58;;;;;;;4.30;3.50;;;21.20;97.70;;;21.80;nan;100420.44;4994424;28;20676;-67
2023/06/26 03:53:25;;;;;;;3.53;3.10;;;21.20;97.80;;;21.92;nan;100418.13;4993235;28;20618;-67
2023/06/26 03:55:52;;;;;;;5.77;3.67;;;21.30;97.70;;;22.01;nan;100422.34;4993112;28;21225;-67
2023/06/26 03:58:19;;;;;;;4.10;3.70;;;21.40;97.50;;;22.14;nan;100414.50;4993732;28;21189;-67
2023/06/26 04:00:47;;;;;;;5.13;3.50;;;21.50;97.00;;;22.25;nan;100428.09;4993089;28;21181;-67
2023/06/26 04:03:14;;;;;;;4.20;3.23;;;21.60;96.60;;;22.30;nan;100423.03;4991141;28;20634;-67
2023/06/26 04:05:41;;;;;;;5.33;3.50;;;21.70;96.50;;;22.29;nan;100418.75;4988532;28;20670;-66
2023/06/26 04:08:08;;;;;;;4.27;3.17;;;21.70;96.50;;;22.33;nan;100417.34;4986587;28;20650;-67
2023/06/26 04:10:38;;;;;;;11.20;3.93;;;21.70;96.50;;;22.45;nan;100420.28;4988794;28;20678;-67
2023/06/26 04:13:05;;;;;;;3.27;3.00;;;21.80;96.30;;;22.60;nan;100426.38;4985742;28;20669;-67
2023/06/26 04:15:32;;;;;;;4.97;3.90;;;22.00;96.10;;;22.81;nan;100426.31;4975227;28;20665;-68
2023/06/26 04:17:59;;;;;;;4.60;3.80;;;22.20;95.80;;;23.04;nan;100426.09;4993164;28;21224;-67
2023/06/26 04:20:26;;;;;;;3.90;3.50;;;22.40;95.50;;;23.29;nan;100434.41;4992745;28;20642;-68
2023/06/26 04:22:53;;;;;;;4.27;3.37;;;22.70;95.10;;;23.48;nan;100437.19;4979579;28;20638;-67
2023/06/26 04:25:20;;;;;;;5.90;3.77;;;22.90;94.80;;;23.66;nan;100442.00;4990408;28;20672;-67
2023/06/26 04:27:47;;;;;;;3.23;2.93;;;23.10;94.40;;;23.76;nan;100439.78;4990883;28;20638;-65
2023/06/26 04:30:14;;;;;;;6.43;3.60;;;23.20;94.10;;;23.70;nan;100433.38;4993851;28;20673;-68
2023/06/26 04:32:41;;;;;;;13.80;3.63;;;23.20;94.10;;;23.73;nan;100438.31;5003920;28;20641;-68
2023/06/26 04:35:09;;;;;;;3.23;2.80;;;23.20;94.00;;;23.78;nan;100441.22;4995239;28;21102;-67
2023/06/26 04:37:36;;;;;;;4.70;3.47;;;23.20;93.90;;;23.74;nan;100439.16;4992651;28;20650;-68
2023/06/26 04:40:07;;;;;;;5.27;3.27;;;23.20;94.10;;;23.64;nan;100436.84;4992028;28;20635;-67
2023/06/26 04:42:34;;;;;;;5.30;3.40;;;23.10;94.30;;;23.66;nan;100439.34;4991881;28;20638;-67
2023/06/26 04:45:02;;;;;;;4.00;2.80;;;23.10;94.50;;;23.62;nan;100435.41;4999299;28;21008;-67
2023/06/26 04:47:29;;;;;;;4.30;3.00;;;23.10;94.70;;;23.60;nan;100435.59;5000088;28;20637;-67
2023/06/26 04:49:56;;;;;;;4.50;3.27;;;23.00;94.70;;;23.66;nan;100431.34;4991140;28;20666;-68
2023/06/26 04:52:23;;;;;;;3.77;2.90;;;23.10;94.80;;;23.78;nan;100435.06;4982376;28;21250;-67
2023/06/26 04:54:50;;;;;;;8.57;2.97;;;23.20;94.50;;;23.86;nan;100438.38;4990604;28;20622;-68
2023/06/26 04:57:18;;;;;;;3.63;2.80;;;23.30;93.90;;;23.95;nan;100436.34;4996952;28;21044;-66
2023/06/26 04:59:45;;;;;;;5.37;3.60;;;23.40;93.50;;;24.07;nan;100434.75;4990793;28;20645;-68
2023/06/26 05:02:14;;;;;;;4.83;3.40;;;23.50;93.30;;;24.20;nan;100436.63;4992859;28;20638;-67
2023/06/26 05:04:42;;;;;;;4.17;3.00;;;23.60;93.00;;;24.26;nan;100435.78;5009691;28;20648;-68
2023/06/26 05:07:09;;;;;;;5.70;3.73;;;23.70;92.60;;;24.45;nan;100427.81;5002310;28;20642;-67
2023/06/26 05:09:36;;;;;;;3.07;2.87;;;23.80;92.50;;;24.70;nan;100435.22;4992120;28;21036;-67
2023/06/26 05:12:04;;;;;;;4.50;3.27;;;24.00;92.10;;;24.88;nan;100433.56;4995975;28;20660;-67
2023/06/26 05:14:31;;;;;;;3.03;2.80;;;24.20;91.70;;;24.91;nan;100437.69;4989875;28;20630;-68
2023/06/26 05:16:58;;;;;;;4.17;3.00;;;24.30;91.50;;;24.99;nan;100440.13;5001339;28;20661;-67
2023/06/26 05:19:25;;;;;;;4.40;3.40;;;24.40;91.30;;;25.10;nan;100439.50;4994127;28;20688;-68
2023/06/26 05:21:52;;;;;;;3.07;2.87;;;24.50;91.10;;;25.35;nan;100445.78;4989738;28;22654;-67
2023/06/26 05:24:19;;;;;;;3.33;2.67;;;24.70;90.80;;;25.56;nan;100444.72;4987338;28;20643;-67
2023/06/26 05:26:49;;;;;;;5.40;3.57;;;24.90;90.60;;;25.58;nan;100440.81;4973540;28;20663;-66
2023/06/26 05:29:16;;;;;;;3.40;3.10;;;25.00;90.50;;;25.72;nan;100446.91;4996271;28;20653;-67
2023/06/26 05:31:45;;;;;;;3.23;3.00;;;25.10;90.40;;;25.84;nan;100435.34;4989863;28;20677;-67
2023/06/26 05:34:14;;;;;;;4.97;3.70;;;25.20;90.30;;;26.11;nan;100442.19;4979119;28;20676;-67
2023/06/26 05:36:43;;;;;;;3.97;3.27;;;25.50;90.00;;;26.31;nan;100435.91;4986938;28;20936;-67
2023/06/26 05:39:10;;;;;;;4.20;3.30;;;25.70;88.70;;;26.45;nan;100432.09;4985452;28;20630;-67
2023/06/26 05:41:37;;;;;;;3.70;3.10;;;25.80;88.10;;;26.57;nan;100435.69;4984626;28;20648;-67
2023/06/26 05:44:04;;;;;;;4.87;3.57;;;26.00;87.80;;;26.64;nan;100436.47;4993784;28;20653;-66
2023/06/26 05:46:31;;;;;;;3.40;3.13;;;26.10;87.50;;;26.81;nan;100441.06;4995605;28;20668;-67
2023/06/26 05:48:58;;;;;;;4.70;3.30;;;26.20;86.70;;;27.04;nan;100448.47;4998710;28;20642;-66
2023/06/26 05:51:26;;;;;;;4.43;2.80;;;26.40;86.20;;;27.22;nan;100451.16;5000864;28;21261;-66
2023/06/26 05:53:53;;;;;;;3.80;3.10;;;26.60;85.70;;;27.22;nan;100453.00;5004518;28;20627;-66
2023/06/26 05:56:20;;;;;;;4.93;3.40;;;26.60;85.20;;;27.30;nan;100448.16;4989988;28;21256;-67
2023/06/26 05:58:48;;;;;;;3.50;3.20;;;26.70;85.20;;;27.43;nan;100447.25;4990164;28;20669;-68
2023/06/26 06:01:15;;;;;;;4.30;2.90;;;26.80;84.40;;;27.56;nan;100449.75;4994389;28;20626;-67
2023/06/26 06:03:42;;;;;;;3.37;3.03;;;27.00;83.60;;;27.67;nan;100444.47;5006081;28;20631;-67
2023/06/26 06:06:10;;;;;;;5.67;3.30;;;27.00;83.10;;;27.95;nan;100446.56;4998487;28;20657;-67
2023/06/26 06:08:37;;;;;;;3.50;3.20;;;27.30;82.70;;;28.07;nan;100439.41;4992602;28;21283;-66
2023/06/26 06:11:05;;;;;;;4.50;3.63;;;27.40;81.50;;;28.18;nan;100438.63;4985200;28;21303;-67
2023/06/26 06:13:32;;;;;;;4.13;3.73;;;27.50;81.20;;;28.24;nan;100437.69;4987123;28;20646;-67
2023/06/26 06:15:59;;;;;;;5.10;3.10;;;27.60;81.30;;;28.47;nan;100434.25;4988873;28;20667;-70
2023/06/26 06:18:26;;;;;;;3.37;3.07;;;27.70;80.50;;;28.77;nan;100434.19;4971806;28;21067;-67
2023/06/26 06:20:53;;;;;;;3.57;3.10;;;28.00;79.70;;;29.03;nan;100439.06;4983353;28;20647;-68
2023/06/26 06:23:20;;;;;;;6.83;3.73;;;28.30;78.90;;;29.29;nan;100433.25;4970444;28;20635;-66
2023/06/26 06:25:48;;;;;;;4.40;4.00;;;28.50;78.20;;;29.43;nan;100444.56;4983123;28;20677;-67
2023/06/26 06:28:16;;;;;;;8.73;3.70;;;28.70;77.50;;;29.81;nan;100450.97;4989915;28;20646;-67
2023/06/26 06:30:43;;;;;;;3.80;3.50;;;29.00;76.60;;;30.37;nan;100442.06;4983867;28;20678;-67
2023/06/26 06:33:12;;;;;;;4.43;3.47;;;29.50;75.90;;;30.84;nan;100444.44;4990186;28;20624;-67
2023/06/26 06:35:39;;;;;;;5.73;4.17;;;30.00;74.30;;;31.24;nan;100447.72;4993110;28;20659;-66
2023/06/26 06:38:06;;;;;;;3.67;3.30;;;30.40;73.00;;;31.83;nan;100449.56;4989674;28;20639;-67
2023/06/26 06:40:33;;;;;;;4.20;3.80;;;31.00;72.10;;;32.08;nan;100451.72;4991595;28;20618;-67
2023/06/26 06:43:00;;;;;;;4.53;3.63;;;31.40;70.60;;;32.66;nan;100448.19;4989161;28;20646;-68
2023/06/26 06:45:29;;;;;;;3.67;3.20;;;31.80;70.00;;;33.09;nan;100455.28;4989235;28;20662;-68
2023/06/26 06:47:56;;;;;;;3.97;3.50;;;32.20;68.30;;;33.53;nan;100457.41;5007164;28;20641;-67
2023/06/26 06:50:24;;;;;;;6.20;4.30;;;32.80;66.90;;;33.75;nan;100456.38;4991571;28;21237;-67
2023/06/26 06:52:51;;;;;;;4.27;3.63;;;33.00;65.90;;;34.15;nan;100456.50;5001802;28;20613;-67
2023/06/26 06:55:19;;;;;;;4.80;4.10;;;33.40;65.00;;;34.63;nan;100453.28;5001564;28;21045;-67
2023/06/26 06:57:46;;;;;;;5.37;4.57;;;33.90;63.90;;;35.26;nan;100459.16;4995220;28;20621;-67
2023/06/26 07:00:16;;;;;;;5.20;4.20;;;34.50;62.90;;;35.91;nan;100453.41;4997082;28;20673;-67
2023/06/26 07:02:45;;;;;;;5.60;4.40;;;35.10;61.60;;;36.38;nan;100456.38;4997608;28;20645;-66
2023/06/26 07:05:13;;;;;;;4.20;3.80;;;35.70;61.40;;;36.96;nan;100456.44;5003812;28;21254;-68
2023/06/26 07:07:40;;;;;;;4.43;4.07;;;36.20;59.30;;;37.71;nan;100454.72;5014049;28;20641;-68
2023/06/26 07:10:13;;;;;;;8.40;5.60;;;36.80;58.50;;;38.50;nan;100467.47;5010928;28;20644;-68
2023/06/26 07:12:40;;;;;;;3.70;3.40;;;37.60;57.40;;;38.96;nan;100462.81;5004238;28;21263;-66
2023/06/26 07:15:08;;;;;;;5.60;5.07;;;38.20;56.30;;;39.54;nan;100458.38;4991078;28;20673;-67
2023/06/26 07:17:37;;;;;;;4.57;4.17;;;38.80;55.10;;;40.01;nan;100451.66;4996538;28;20710;-67
2023/06/26 07:20:08;;;;;;;4.03;3.73;;;39.20;54.00;;;40.35;nan;100451.09;5001818;28;20614;-66
2023/06/26 07:22:36;;;;;;;5.10;4.60;;;39.60;53.30;;;40.55;nan;100452.53;4993691;28;20637;-68
2023/06/26 07:25:04;;;;;;;4.47;4.17;;;39.80;52.40;;;40.27;nan;100444.44;4993193;28;20649;-66
2023/06/26 07:27:33;;;;;;;4.43;4.13;;;39.60;52.10;;;40.32;nan;100442.72;4993882;28;20646;-68
2023/06/26 07:30:00;;;;;;;4.03;3.73;;;39.70;52.10;;;40.39;nan;100441.13;5000325;28;20942;-67
2023/06/26 07:32:27;;;;;;;4.17;3.87;;;39.70;51.70;;;40.78;nan;100449.44;4993375;28;20642;-67
2023/06/26 07:34:54;;;;;;;4.30;3.90;;;40.00;51.40;;;40.62;nan;100447.41;4991594;28;21496;-67
2023/06/26 07:37:21;;;;;;;4.17;3.87;;;39.90;50.80;;;40.75;nan;100447.31;4993885;28;20642;-67
2023/06/26 07:39:49;;;;;;;6.30;5.07;;;40.10;50.70;;;40.73;nan;100452.31;4994559;28;20646;-68
2023/06/26 07:42:16;;;;;;;6.23;5.00;;;40.10;50.40;;;40.66;nan;100451.94;4992571;28;20644;-67
2023/06/26 07:44:43;;;;;;;4.67;4.27;;;40.10;50.10;;;40.76;nan;100454.38;4992198;28;20640;-67
2023/06/26 07:47:11;;;;;;;4.80;4.50;;;40.20;50.10;;;41.46;nan;100448.09;5000502;28;20650;-68
2023/06/26 07:49:39;;;;;;;4.57;4.17;;;40.60;49.80;;;41.94;nan;100459.78;4992765;28;20642;-68
2023/06/26 07:52:06;;;;;;;4.50;4.17;;;41.20;48.50;;;42.19;nan;100455.44;4993889;28;20740;-68
2023/06/26 07:54:33;;;;;;;4.70;4.27;;;41.40;48.10;;;42.63;nan;100448.75;4993338;28;21182;-67
2023/06/26 07:57:04;;;;;;;3.93;3.73;;;41.90;47.60;;;42.99;nan;100454.63;4966290;28;20678;-65
2023/06/26 07:59:31;;;;;;;4.13;3.73;;;42.30;46.60;;;42.87;nan;100454.53;4992634;28;20661;-67
2023/06/26 08:01:59;;;;;;;4.67;4.37;;;42.30;45.90;;;43.28;nan;100448.38;4992050;28;20626;-68
2023/06/26 08:04:29;;;;;;;3.60;3.40;;;42.60;46.00;;;43.18;nan;100466.81;4991614;28;20634;-67
2023/06/26 08:06:58;;;;;;;5.10;4.70;;;42.60;45.70;;;43.37;nan;100460.09;4976060;28;20653;-68
2023/06/26 08:09:28;;;;;;;4.40;4.00;;;42.70;45.60;;;42.55;nan;100464.13;4992309;28;20618;-67
2023/06/26 08:11:56;;;;;;;4.60;4.30;;;42.30;45.60;;;41.16;nan;100454.44;4992380;28;20670;-67
2023/06/26 08:14:23;;;;;;;6.70;4.50;;;41.10;46.60;;;41.04;nan;100456.97;4991704;28;20618;-67
2023/06/26 08:16:51;;;;;;;4.77;4.47;;;40.70;46.90;;;41.24;nan;100459.97;4990212;28;20665;-68
2023/06/26 08:19:18;;;;;;;4.40;4.10;;;40.70;47.20;;;41.92;nan;100464.78;4991170;28;21013;-68
2023/06/26 08:21:46;;;;;;;4.17;3.87;;;41.30;46.90;;;42.31;nan;100466.56;4991061;28;20708;-68
2023/06/26 08:24:16;;;;;;;4.70;4.40;;;41.90;46.10;;;42.42;nan;100470.56;4991039;28;21026;-68
2023/06/26 08:26:47;;;;;;;4.40;4.10;;;41.90;46.50;;;42.31;nan;100470.09;4989383;28;20693;-68
2023/06/26 08:29:14;;;;;;;4.53;4.27;;;41.90;46.20;;;41.97;nan;100470.09;4992586;28;20630;-67
2023/06/26 08:31:43;;;;;;;5.67;3.27;;;41.50;46.40;;;42.11;nan;100465.28;4991202;28;21295;-67
2023/06/26 08:34:10;;;;;;;7.13;4.17;;;41.60;46.60;;;43.05;nan;100472.50;4990906;28;20626;-68
2023/06/26 08:36:38;;;;;;;3.67;3.47;;;42.30;46.00;;;43.90;nan;100466.53;5002880;28;20669;-68
2023/06/26 08:39:05;;;;;;;4.30;4.10;;;43.30;46.00;;;43.43;nan;100472.50;5007044;28;20638;-69
2023/06/26 08:41:32;;;;;;;5.17;3.40;;;43.00;44.90;;;42.28;nan;100468.00;4981689;28;20637;-68
2023/06/26 08:44:00;;;;;;;4.50;4.20;;;42.10;46.20;;;40.83;nan;100465.72;4990980;28;20634;-68
2023/06/26 08:46:28;;;;;;;5.30;4.90;;;40.80;46.90;;;39.98;nan;100467.84;4958288;28;20662;-69
2023/06/26 08:48:58;;;;;;;5.83;3.93;;;39.90;47.30;;;39.09;nan;100467.47;4991029;28;20674;-69
2023/06/26 08:51:28;;;;;;;4.10;3.80;;;38.80;47.80;;;39.93;nan;100465.22;4993958;28;21255;-68
2023/06/26 08:54:07;;;;;;;4.73;4.20;;;39.20;47.60;;;40.64;nan;100478.78;4977546;28;20634;-69
2023/06/26 08:56:42;;;;;;;3.70;3.50;;;39.90;46.90;;;40.51;nan;100474.19;4991372;28;20658;-69
2023/06/26 08:59:14;;;;;;;3.50;3.23;;;39.90;46.90;;;40.72;nan;100478.03;4989316;28;21011;-67
2023/06/26 09:01:41;;;;;;;3.77;3.47;;;40.10;46.90;;;40.84;nan;100474.75;4991333;28;20634;-68
2023/06/26 09:04:11;;;;;;;4.67;4.27;;;40.20;46.70;;;40.22;nan;100471.09;4980045;28;20644;-67
2023/06/26 09:06:39;;;;;;;4.73;4.33;;;39.70;46.90;;;39.75;nan;100475.16;4983971;28;21240;-67
2023/06/26 09:09:07;;;;;;;5.00;4.50;;;39.20;47.70;;;40.54;nan;100479.06;5000045;28;21020;-68
2023/06/26 09:11:37;;;;;;;5.40;5.00;;;39.70;47.40;;;41.51;nan;100483.56;4990600;28;20762;-67
2023/06/26 09:14:07;;;;;;;4.60;4.20;;;40.70;46.80;;;42.74;nan;100482.94;4989881;28;20635;-68
2023/06/26 09:16:41;;;;;;;3.80;3.60;;;41.80;45.80;;;44.08;nan;100494.72;4968462;28;20666;-68
2023/06/26 09:19:12;;;;;;;4.00;3.80;;;43.20;44.90;;;44.86;nan;100490.06;4993791;28;21213;-67
2023/06/26 09:21:41;;;;;;;3.63;3.43;;;44.20;43.80;;;45.59;nan;100499.19;4989162;28;20618;-67
2023/06/26 09:24:10;;;;;;;3.97;3.77;;;44.90;43.00;;;46.06;nan;100500.25;4989007;28;20648;-66
2023/06/26 09:26:38;;;;;;;4.00;3.80;;;45.30;42.60;;;45.12;nan;100492.50;4992057;28;20657;-66
2023/06/26 09:29:07;;;;;;;5.83;4.50;;;44.60;42.50;;;44.75;nan;100494.38;4994242;28;21505;-66
2023/06/26 09:31:39;;;;;;;4.07;3.77;;;44.20;42.90;;;45.39;nan;100500.91;4990538;28;21048;-69
2023/06/26 09:34:08;;;;;;;4.33;4.13;;;44.70;43.00;;;46.38;nan;100495.66;4973801;28;20609;-67
2023/06/26 09:36:36;;;;;;;4.67;4.47;;;45.70;42.50;;;47.37;nan;100496.28;5008872;28;21227;-67
2023/06/26 09:39:10;;;;;;;5.30;5.00;;;46.60;41.90;;;47.80;nan;100505.53;4994398;28;20814;-67
2023/06/26 09:41:44;;;;;;;5.17;4.87;;;47.20;41.40;;;47.10;nan;100505.47;4973400;28;20630;-67
2023/06/26 09:44:14;;;;;;;4.80;4.50;;;47.10;41.10;;;45.37;nan;100497.69;5001018;28;20610;-68
2023/06/26 09:46:46;;;;;;;4.80;4.60;;;45.40;41.80;;;43.69;nan;100493.22;4993215;28;20757;-69
2023/06/26 09:49:13;;;;;;;5.60;5.23;;;43.70;43.10;;;42.56;nan;100487.66;4989956;28;20636;-67
2023/06/26 09:51:42;;;;;;;3.43;3.30;;;42.60;43.80;;;41.20;nan;100478.13;5001640;28;20668;-68
2023/06/26 09:54:10;;;;;;;4.53;4.23;;;41.20;44.90;;;40.01;nan;100483.63;4987349;28;20653;-68
2023/06/26 09:56:37;;;;;;;6.20;4.73;;;39.90;45.90;;;39.43;nan;100478.00;4989754;28;20704;-68
2023/06/26 09:59:05;;;;;;;5.03;4.67;;;39.10;46.80;;;38.78;nan;100480.09;4971555;28;20639;-67
2023/06/26 10:01:33;;;;;;;4.57;4.27;;;38.40;47.90;;;39.23;nan;100479.22;4991023;28;20599;-67
2023/06/26 10:04:01;;;;;;;4.83;4.37;;;38.50;48.10;;;39.88;nan;100470.78;4969714;28;20654;-68
2023/06/26 10:06:46;;;;;;;4.93;4.43;;;39.10;47.60;;;39.82;nan;100475.56;4983326;28;20658;-68
2023/06/26 10:09:17;;;;;;;5.13;4.70;;;39.10;47.60;;;39.16;nan;100476.09;4968462;28;20620;-68
2023/06/26 10:11:54;;;;;;;4.40;4.03;;;38.50;48.20;;;38.54;nan;100474.75;4981374;28;20657;-68
2023/06/26 10:14:34;;;;;;;4.47;4.17;;;37.90;49.00;;;38.08;nan;100471.91;4965796;28;21202;-67
2023/06/26 10:17:06;;;;;;;4.70;4.20;;;37.40;49.70;;;38.24;nan;100477.13;4990712;28;20660;-67
2023/06/26 10:19:34;;;;;;;5.17;3.80;;;37.30;50.00;;;38.13;nan;100472.91;4990350;28;20598;-67
2023/06/26 10:22:02;;;;;;;4.70;4.30;;;37.30;50.10;;;37.97;nan;100480.53;4987524;28;21056;-66
2023/06/26 10:24:34;;;;;;;5.80;4.50;;;37.10;50.10;;;37.84;nan;100484.81;4991795;28;20629;-68
2023/06/26 10:27:19;;;;;;;4.37;4.00;;;36.90;50.20;;;37.73;nan;100480.56;5007218;28;20676;-66
2023/06/26 10:29:54;;;;;;;5.70;4.87;;;36.90;50.50;;;37.48;nan;100478.19;4996302;28;21168;-67
2023/06/26 10:32:25;;;;;;;6.93;4.10;;;36.70;50.70;;;37.07;nan;100480.53;4996256;28;20659;-66